Terminal Aerodrome Forecast
Issued by NWS Topeka, KS

Home | Current Version | Previous Version | Graphics & Text | Print | Product List | Glossary On
Versions: 1 2 3 4 5 6 7 8 9 10 11 12 13 14 15 16 17 18 19
564
FTUS43 KTOP 281741 CCA
TAFTOP
TAF COR
KTOP 281741Z 2818/2918 15008KT P6SM VCTS SCT040CB
     FM290100 12003KT P6SM SCT250=

USA.gov is the U.S. government's official web portal to all federal, state and local government web resources and services.